sensor_id;sensor_type;location;lat;lon;timestamp;pressure;altitude;pressure_sealevel;temperature
77728;BMP280;68312;53.502;10.030;2023-07-29T00:01:30;100897.63;;;17.32
77728;BMP280;68312;53.502;10.030;2023-07-29T00:03:56;100897.13;;;17.23
77728;BMP280;68312;53.502;10.030;2023-07-29T00:06:21;100890.56;;;17.17
77728;BMP280;68312;53.502;10.030;2023-07-29T00:08:46;100890.06;;;17.08
77728;BMP280;68312;53.502;10.030;2023-07-29T00:11:12;100886.59;;;17.04
77728;BMP280;68312;53.502;10.030;2023-07-29T00:13:37;100883.38;;;16.95
77728;BMP280;68312;53.502;10.030;2023-07-29T00:16:03;100891.34;;;16.95
77728;BMP280;68312;53.502;10.030;2023-07-29T00:18:28;100897.81;;;16.94
77728;BMP280;68312;53.502;10.030;2023-07-29T00:20:53;100889.00;;;16.90
77728;BMP280;68312;53.502;10.030;2023-07-29T00:23:19;100889.34;;;16.89
77728;BMP280;68312;53.502;10.030;2023-07-29T00:25:44;100881.34;;;16.86
77728;BMP280;68312;53.502;10.030;2023-07-29T00:28:11;100881.34;;;16.86
77728;BMP280;68312;53.502;10.030;2023-07-29T00:30:37;100881.75;;;16.87
77728;BMP280;68312;53.502;10.030;2023-07-29T00:33:03;100866.19;;;16.86
77728;BMP280;68312;53.502;10.030;2023-07-29T00:35:28;100861.34;;;16.91
77728;BMP280;68312;53.502;10.030;2023-07-29T00:37:53;100868.13;;;16.89
77728;BMP280;68312;53.502;10.030;2023-07-29T00:40:20;100869.59;;;16.87
77728;BMP280;68312;53.502;10.030;2023-07-29T00:42:46;100862.97;;;16.77
77728;BMP280;68312;53.502;10.030;2023-07-29T00:45:12;100859.53;;;16.73
77728;BMP280;68312;53.502;10.030;2023-07-29T00:47:38;100852.19;;;16.67
77728;BMP280;68312;53.502;10.030;2023-07-29T00:50:05;100849.84;;;16.62
77728;BMP280;68312;53.502;10.030;2023-07-29T00:52:32;100845.28;;;16.62
77728;BMP280;68312;53.502;10.030;2023-07-29T00:54:58;100848.13;;;16.73
77728;BMP280;68312;53.502;10.030;2023-07-29T00:57:24;100852.03;;;16.79
77728;BMP280;68312;53.502;10.030;2023-07-29T00:59:51;100854.25;;;16.77
77728;BMP280;68312;53.502;10.030;2023-07-29T01:02:17;100851.19;;;16.71
77728;BMP280;68312;53.502;10.030;2023-07-29T01:04:42;100841.72;;;16.74
77728;BMP280;68312;53.502;10.030;2023-07-29T01:12:48;100808.84;;;17.04
77728;BMP280;68312;53.502;10.030;2023-07-29T01:15:26;100809.19;;;17.02
77728;BMP280;68312;53.502;10.030;2023-07-29T01:18:04;100811.09;;;17.02
77728;BMP280;68312;53.502;10.030;2023-07-29T01:20:37;100812.66;;;17.06
77728;BMP280;68312;53.502;10.030;2023-07-29T01:23:04;100806.69;;;17.09
77728;BMP280;68312;53.502;10.030;2023-07-29T01:25:29;100808.59;;;17.12
77728;BMP280;68312;53.502;10.030;2023-07-29T01:27:55;100804.53;;;17.21
77728;BMP280;68312;53.502;10.030;2023-07-29T01:30:22;100802.34;;;17.27
77728;BMP280;68312;53.502;10.030;2023-07-29T01:33:14;100809.56;;;17.26
77728;BMP280;68312;53.502;10.030;2023-07-29T01:35:58;100819.19;;;17.38
77728;BMP280;68312;53.502;10.030;2023-07-29T01:38:30;100823.16;;;17.50
77728;BMP280;68312;53.502;10.030;2023-07-29T01:41:04;100832.69;;;17.55
77728;BMP280;68312;53.502;10.030;2023-07-29T01:43:33;100834.66;;;17.61
77728;BMP280;68312;53.502;10.030;2023-07-29T01:46:00;100831.31;;;17.64
77728;BMP280;68312;53.502;10.030;2023-07-29T01:48:26;100829.44;;;17.65
77728;BMP280;68312;53.502;10.030;2023-07-29T01:50:52;100835.91;;;17.67
77728;BMP280;68312;53.502;10.030;2023-07-29T01:53:18;100835.22;;;17.73
77728;BMP280;68312;53.502;10.030;2023-07-29T01:55:43;100829.19;;;17.76
77728;BMP280;68312;53.502;10.030;2023-07-29T01:58:10;100826.94;;;17.78
77728;BMP280;68312;53.502;10.030;2023-07-29T02:00:35;100827.31;;;17.80
77728;BMP280;68312;53.502;10.030;2023-07-29T02:03:01;100823.22;;;17.83
77728;BMP280;68312;53.502;10.030;2023-07-29T02:05:26;100825.88;;;17.83
77728;BMP280;68312;53.502;10.030;2023-07-29T02:07:51;100819.41;;;17.84
77728;BMP280;68312;53.502;10.030;2023-07-29T02:10:17;100814.09;;;17.84
77728;BMP280;68312;53.502;10.030;2023-07-29T02:12:42;100814.09;;;17.84
77728;BMP280;68312;53.502;10.030;2023-07-29T02:15:08;100822.81;;;17.84
77728;BMP280;68312;53.502;10.030;2023-07-29T02:17:35;100812.97;;;17.85
77728;BMP280;68312;53.502;10.030;2023-07-29T02:20:01;100807.25;;;17.83
77728;BMP280;68312;53.502;10.030;2023-07-29T02:22:28;100807.25;;;17.83
77728;BMP280;68312;53.502;10.030;2023-07-29T02:24:54;100806.84;;;17.81
77728;BMP280;68312;53.502;10.030;2023-07-29T02:27:19;100806.81;;;17.77
77728;BMP280;68312;53.502;10.030;2023-07-29T02:29:44;100809.84;;;17.79
77728;BMP280;68312;53.502;10.030;2023-07-29T02:32:10;100805.63;;;17.75
77728;BMP280;68312;53.502;10.030;2023-07-29T02:34:35;100801.81;;;17.76
77728;BMP280;68312;53.502;10.030;2023-07-29T02:37:00;100800.72;;;17.77
77728;BMP280;68312;53.502;10.030;2023-07-29T02:39:26;100802.22;;;17.74
77728;BMP280;68312;53.502;10.030;2023-07-29T02:41:51;100807.16;;;17.76
77728;BMP280;68312;53.502;10.030;2023-07-29T02:44:17;100789.34;;;17.76
77728;BMP280;68312;53.502;10.030;2023-07-29T02:46:44;100799.16;;;17.76
77728;BMP280;68312;53.502;10.030;2023-07-29T02:49:09;100786.59;;;17.69
77728;BMP280;68312;53.502;10.030;2023-07-29T02:51:35;100781.59;;;17.65
77728;BMP280;68312;53.502;10.030;2023-07-29T02:54:00;100786.13;;;17.61
77728;BMP280;68312;53.502;10.030;2023-07-29T02:56:25;100780.66;;;17.50
77728;BMP280;68312;53.502;10.030;2023-07-29T02:58:51;100786.31;;;17.49
77728;BMP280;68312;53.502;10.030;2023-07-29T03:01:17;100786.66;;;17.44
77728;BMP280;68312;53.502;10.030;2023-07-29T03:03:43;100789.25;;;17.40
77728;BMP280;68312;53.502;10.030;2023-07-29T03:06:10;100787.34;;;17.38
77728;BMP280;68312;53.502;10.030;2023-07-29T03:08:36;100782.69;;;17.31
77728;BMP280;68312;53.502;10.030;2023-07-29T03:11:10;100791.41;;;17.32
77728;BMP280;68312;53.502;10.030;2023-07-29T03:13:37;100786.44;;;17.27
77728;BMP280;68312;53.502;10.030;2023-07-29T03:16:10;100784.47;;;17.24
77728;BMP280;68312;53.502;10.030;2023-07-29T03:18:40;100777.28;;;17.24
77728;BMP280;68312;53.502;10.030;2023-07-29T03:21:06;100788.28;;;17.23
77728;BMP280;68312;53.502;10.030;2023-07-29T03:23:33;100781.72;;;17.17
77728;BMP280;68312;53.502;10.030;2023-07-29T03:26:00;100780.91;;;17.13
77728;BMP280;68312;53.502;10.030;2023-07-29T03:28:32;100796.41;;;17.11
77728;BMP280;68312;53.502;10.030;2023-07-29T03:30:58;100806.69;;;17.13
77728;BMP280;68312;53.502;10.030;2023-07-29T03:33:25;100809.41;;;17.16
77728;BMP280;68312;53.502;10.030;2023-07-29T03:35:53;100800.38;;;17.20
77728;BMP280;68312;53.502;10.030;2023-07-29T03:38:18;100805.34;;;17.25
77728;BMP280;68312;53.502;10.030;2023-07-29T03:40:44;100806.13;;;17.26
77728;BMP280;68312;53.502;10.030;2023-07-29T03:43:09;100801.22;;;17.28
77728;BMP280;68312;53.502;10.030;2023-07-29T03:45:35;100805.81;;;17.31
77728;BMP280;68312;53.502;10.030;2023-07-29T03:48:02;100796.72;;;17.32
77728;BMP280;68312;53.502;10.030;2023-07-29T03:50:29;100799.44;;;17.35
77728;BMP280;68312;53.502;10.030;2023-07-29T03:52:55;100777.53;;;17.41
77728;BMP280;68312;53.502;10.030;2023-07-29T03:55:22;100786.25;;;17.42
77728;BMP280;68312;53.502;10.030;2023-07-29T03:57:48;100776.72;;;17.38
77728;BMP280;68312;53.502;10.030;2023-07-29T04:00:13;100785.41;;;17.35
77728;BMP280;68312;53.502;10.030;2023-07-29T04:02:39;100778.53;;;17.34
77728;BMP280;68312;53.502;10.030;2023-07-29T04:05:05;100779.69;;;17.33
77728;BMP280;68312;53.502;10.030;2023-07-29T04:07:34;100783.34;;;17.25
77728;BMP280;68312;53.502;10.030;2023-07-29T04:10:01;100790.56;;;17.24
77728;BMP280;68312;53.502;10.030;2023-07-29T04:12:27;100781.06;;;17.23
77728;BMP280;68312;53.502;10.030;2023-07-29T04:14:52;100773.50;;;17.25
77728;BMP280;68312;53.502;10.030;2023-07-29T04:17:18;100779.22;;;17.27
77728;BMP280;68312;53.502;10.030;2023-07-29T04:19:43;100781.06;;;17.23
77728;BMP280;68312;53.502;10.030;2023-07-29T04:22:09;100786.00;;;17.25
77728;BMP280;68312;53.502;10.030;2023-07-29T04:24:34;100780.34;;;17.26
77728;BMP280;68312;53.502;10.030;2023-07-29T04:26:59;100775.50;;;17.32
77728;BMP280;68312;53.502;10.030;2023-07-29T04:29:25;100791.81;;;17.34
77728;BMP280;68312;53.502;10.030;2023-07-29T04:31:51;100782.75;;;17.35
77728;BMP280;68312;53.502;10.030;2023-07-29T04:34:17;100793.78;;;17.37
77728;BMP280;68312;53.502;10.030;2023-07-29T04:36:44;100785.81;;;17.37
77728;BMP280;68312;53.502;10.030;2023-07-29T04:39:15;100783.94;;;17.40
77728;BMP280;68312;53.502;10.030;2023-07-29T04:41:41;100781.69;;;17.42
77728;BMP280;68312;53.502;10.030;2023-07-29T04:44:06;100778.69;;;17.44
77728;BMP280;68312;53.502;10.030;2023-07-29T04:46:32;100779.16;;;17.49
77728;BMP280;68312;53.502;10.030;2023-07-29T04:48:58;100785.25;;;17.53
77728;BMP280;68312;53.502;10.030;2023-07-29T04:51:23;100776.91;;;17.51
77728;BMP280;68312;53.502;10.030;2023-07-29T04:53:49;100771.59;;;17.55
77728;BMP280;68312;53.502;10.030;2023-07-29T04:59:55;100769.81;;;17.66
77728;BMP280;68312;53.502;10.030;2023-07-29T05:02:21;100766.44;;;17.65
77728;BMP280;68312;53.502;10.030;2023-07-29T05:04:46;100770.22;;;17.67
77728;BMP280;68312;53.502;10.030;2023-07-29T05:07:11;100765.03;;;17.74
77728;BMP280;68312;53.502;10.030;2023-07-29T05:09:37;100766.59;;;17.79
77728;BMP280;68312;53.502;10.030;2023-07-29T05:12:02;100774.63;;;17.86
77728;BMP280;68312;53.502;10.030;2023-07-29T05:14:28;100769.78;;;17.94
77728;BMP280;68312;53.502;10.030;2023-07-29T05:16:53;100765.28;;;18.02
77728;BMP280;68312;53.502;10.030;2023-07-29T05:19:19;100759.34;;;18.15
77728;BMP280;68312;53.502;10.030;2023-07-29T05:21:45;100770.16;;;18.32
77728;BMP280;68312;53.502;10.030;2023-07-29T05:24:11;100756.88;;;18.39
77728;BMP280;68312;53.502;10.030;2023-07-29T05:26:36;100774.84;;;18.49
77728;BMP280;68312;53.502;10.030;2023-07-29T05:29:01;100772.69;;;18.65
77728;BMP280;68312;53.502;10.030;2023-07-29T05:31:27;100769.34;;;18.78
77728;BMP280;68312;53.502;10.030;2023-07-29T05:33:53;100764.47;;;18.87
77728;BMP280;68312;53.502;10.030;2023-07-29T05:36:18;100763.00;;;18.99
77728;BMP280;68312;53.502;10.030;2023-07-29T05:41:53;100765.38;;;19.11
77728;BMP280;68312;53.502;10.030;2023-07-29T05:44:20;100769.97;;;19.18
77728;BMP280;68312;53.502;10.030;2023-07-29T05:46:45;100770.81;;;19.32
77728;BMP280;68312;53.502;10.030;2023-07-29T05:49:10;100765.53;;;19.52
77728;BMP280;68312;53.502;10.030;2023-07-29T05:51:37;100761.00;;;19.63
77728;BMP280;68312;53.502;10.030;2023-07-29T05:54:02;100759.88;;;19.75
77728;BMP280;68312;53.502;10.030;2023-07-29T05:56:27;100753.03;;;19.77
77728;BMP280;68312;53.502;10.030;2023-07-29T05:58:53;100756.44;;;19.64
77728;BMP280;68312;53.502;10.030;2023-07-29T06:01:18;100745.38;;;19.51
77728;BMP280;68312;53.502;10.030;2023-07-29T06:03:46;100756.41;;;19.47
77728;BMP280;68312;53.502;10.030;2023-07-29T06:06:12;100753.69;;;19.36
77728;BMP280;68312;53.502;10.030;2023-07-29T06:08:37;100746.84;;;19.32
77728;BMP280;68312;53.502;10.030;2023-07-29T06:11:02;100743.00;;;19.33
77728;BMP280;68312;53.502;10.030;2023-07-29T06:13:28;100734.66;;;19.38
77728;BMP280;68312;53.502;10.030;2023-07-29T06:19:26;100743.53;;;19.76
77728;BMP280;68312;53.502;10.030;2023-07-29T06:21:55;100727.50;;;19.86
77728;BMP280;68312;53.502;10.030;2023-07-29T06:24:20;100735.16;;;19.98
77728;BMP280;68312;53.502;10.030;2023-07-29T06:26:46;100730.97;;;20.14
77728;BMP280;68312;53.502;10.030;2023-07-29T06:29:11;100736.66;;;20.02
77728;BMP280;68312;53.502;10.030;2023-07-29T06:31:36;100735.16;;;20.08
77728;BMP280;68312;53.502;10.030;2023-07-29T06:34:02;100723.72;;;20.22
77728;BMP280;68312;53.502;10.030;2023-07-29T06:36:27;100724.47;;;20.36
77728;BMP280;68312;53.502;10.030;2023-07-29T06:38:53;100727.88;;;20.53
77728;BMP280;68312;53.502;10.030;2023-07-29T06:41:18;100728.63;;;20.47
77728;BMP280;68312;53.502;10.030;2023-07-29T06:43:43;100730.22;;;20.38
77728;BMP280;68312;53.502;10.030;2023-07-29T06:46:09;100732.47;;;20.43
77728;BMP280;68312;53.502;10.030;2023-07-29T06:48:34;100729.78;;;20.53
77728;BMP280;68312;53.502;10.030;2023-07-29T06:50:59;100727.47;;;20.62
77728;BMP280;68312;53.502;10.030;2023-07-29T06:53:25;100729.38;;;20.75
77728;BMP280;68312;53.502;10.030;2023-07-29T06:55:51;100730.47;;;20.78
77728;BMP280;68312;53.502;10.030;2023-07-29T06:58:17;100726.69;;;20.75
77728;BMP280;68312;53.502;10.030;2023-07-29T07:00:42;100733.22;;;20.57
77728;BMP280;68312;53.502;10.030;2023-07-29T07:03:07;100740.50;;;20.50
77728;BMP280;68312;53.502;10.030;2023-07-29T07:05:33;100748.09;;;20.30
77728;BMP280;68312;53.502;10.030;2023-07-29T07:07:58;100740.50;;;20.15
77728;BMP280;68312;53.502;10.030;2023-07-29T07:10:24;100748.88;;;20.03
77728;BMP280;68312;53.502;10.030;2023-07-29T07:12:49;100756.50;;;20.02
77728;BMP280;68312;53.502;10.030;2023-07-29T07:15:14;100755.75;;;19.98
77728;BMP280;68312;53.502;10.030;2023-07-29T07:17:40;100756.47;;;19.98
77728;BMP280;68312;53.502;10.030;2023-07-29T07:20:06;100756.13;;;20.00
77728;BMP280;68312;53.502;10.030;2023-07-29T07:22:32;100748.13;;;20.13
77728;BMP280;68312;53.502;10.030;2023-07-29T07:24:57;100741.22;;;20.26
77728;BMP280;68312;53.502;10.030;2023-07-29T07:27:23;100745.81;;;20.36
77728;BMP280;68312;53.502;10.030;2023-07-29T07:29:49;100746.94;;;20.45
77728;BMP280;68312;53.502;10.030;2023-07-29T07:32:14;100739.31;;;20.47
77728;BMP280;68312;53.502;10.030;2023-07-29T07:34:39;100746.16;;;20.58
77728;BMP280;68312;53.502;10.030;2023-07-29T07:37:05;100745.78;;;20.63
77728;BMP280;68312;53.502;10.030;2023-07-29T07:39:32;100738.88;;;20.66
77728;BMP280;68312;53.502;10.030;2023-07-29T07:41:58;100740.41;;;20.70
77728;BMP280;68312;53.502;10.030;2023-07-29T07:44:24;100738.94;;;20.69
77728;BMP280;68312;53.502;10.030;2023-07-29T07:46:52;100731.31;;;20.64
77728;BMP280;68312;53.502;10.030;2023-07-29T07:49:18;100734.66;;;20.85
77728;BMP280;68312;53.502;10.030;2023-07-29T07:51:44;100726.66;;;20.89
77728;BMP280;68312;53.502;10.030;2023-07-29T07:54:10;100728.56;;;20.88
77728;BMP280;68312;53.502;10.030;2023-07-29T07:56:35;100725.50;;;20.90
77728;BMP280;68312;53.502;10.030;2023-07-29T07:59:00;100720.94;;;20.80
77728;BMP280;68312;53.502;10.030;2023-07-29T08:01:26;100718.69;;;20.75
77728;BMP280;68312;53.502;10.030;2023-07-29T08:03:51;100723.63;;;20.70
77728;BMP280;68312;53.502;10.030;2023-07-29T08:06:16;100726.69;;;20.75
77728;BMP280;68312;53.502;10.030;2023-07-29T08:08:42;100713.75;;;20.77
77728;BMP280;68312;53.502;10.030;2023-07-29T08:11:07;100709.47;;;20.86
77728;BMP280;68312;53.502;10.030;2023-07-29T08:13:33;100718.22;;;20.94
77728;BMP280;68312;53.502;10.030;2023-07-29T08:15:58;100716.28;;;20.98
77728;BMP280;68312;53.502;10.030;2023-07-29T08:18:24;100724.69;;;21.00
77728;BMP280;68312;53.502;10.030;2023-07-29T08:20:59;100721.25;;;20.99
77728;BMP280;68312;53.502;10.030;2023-07-29T08:23:33;100719.78;;;20.88
77728;BMP280;68312;53.502;10.030;2023-07-29T08:26:02;100734.31;;;20.80
77728;BMP280;68312;53.502;10.030;2023-07-29T08:28:38;100717.44;;;20.93
77728;BMP280;68312;53.502;10.030;2023-07-29T08:31:04;100720.91;;;20.87
77728;BMP280;68312;53.502;10.030;2023-07-29T08:33:31;100730.84;;;20.90
77728;BMP280;68312;53.502;10.030;2023-07-29T08:35:58;100727.38;;;20.93
77728;BMP280;68312;53.502;10.030;2023-07-29T08:38:24;100736.19;;;20.90
77728;BMP280;68312;53.502;10.030;2023-07-29T08:40:54;100732.72;;;20.89
77728;BMP280;68312;53.502;10.030;2023-07-29T08:43:59;100730.78;;;20.93
77728;BMP280;68312;53.502;10.030;2023-07-29T08:46:39;100731.94;;;20.99
77728;BMP280;68312;53.502;10.030;2023-07-29T08:49:04;100727.34;;;21.03
77728;BMP280;68312;53.502;10.030;2023-07-29T08:51:31;100730.31;;;21.22
77728;BMP280;68312;53.502;10.030;2023-07-29T08:53:58;100730.31;;;21.22
77728;BMP280;68312;53.502;10.030;2023-07-29T08:56:25;100732.28;;;21.08
77728;BMP280;68312;53.502;10.030;2023-07-29T08:58:51;100734.97;;;20.98
77728;BMP280;68312;53.502;10.030;2023-07-29T09:01:17;100731.19;;;20.99
77728;BMP280;68312;53.502;10.030;2023-07-29T09:03:43;100729.28;;;20.99
77728;BMP280;68312;53.502;10.030;2023-07-29T09:06:08;100725.09;;;20.95
77728;BMP280;68312;53.502;10.030;2023-07-29T09:08:34;100724.66;;;21.06
77728;BMP280;68312;53.502;10.030;2023-07-29T09:11:00;100719.69;;;21.69
77728;BMP280;68312;53.502;10.030;2023-07-29T09:13:26;100725.94;;;21.99
77728;BMP280;68312;53.502;10.030;2023-07-29T09:15:55;100711.00;;;22.05
77728;BMP280;68312;53.502;10.030;2023-07-29T09:18:22;100709.66;;;22.62
77728;BMP280;68312;53.502;10.030;2023-07-29T09:20:49;100707.00;;;22.92
77728;BMP280;68312;53.502;10.030;2023-07-29T09:23:15;100701.41;;;23.09
77728;BMP280;68312;53.502;10.030;2023-07-29T09:25:41;100699.50;;;23.06
77728;BMP280;68312;53.502;10.030;2023-07-29T09:28:14;100696.69;;;23.42
77728;BMP280;68312;53.502;10.030;2023-07-29T09:30:45;100701.03;;;23.33
77728;BMP280;68312;53.502;10.030;2023-07-29T09:33:12;100700.88;;;23.17
77728;BMP280;68312;53.502;10.030;2023-07-29T09:35:38;100692.84;;;23.17
77728;BMP280;68312;53.502;10.030;2023-07-29T09:38:04;100685.56;;;22.92
77728;BMP280;68312;53.502;10.030;2023-07-29T09:40:38;100687.22;;;22.50
77728;BMP280;68312;53.502;10.030;2023-07-29T09:43:05;100680.34;;;22.78
77728;BMP280;68312;53.502;10.030;2023-07-29T09:45:33;100678.50;;;23.53
77728;BMP280;68312;53.502;10.030;2023-07-29T09:48:01;100674.59;;;24.22
77728;BMP280;68312;53.502;10.030;2023-07-29T09:50:27;100666.44;;;24.63
77728;BMP280;68312;53.502;10.030;2023-07-29T09:52:54;100673.75;;;24.25
77728;BMP280;68312;53.502;10.030;2023-07-29T09:55:22;100682.94;;;24.81
77728;BMP280;68312;53.502;10.030;2023-07-29T09:57:58;100680.94;;;25.79
77728;BMP280;68312;53.502;10.030;2023-07-29T10:00:30;100679.06;;;26.32
77728;BMP280;68312;53.502;10.030;2023-07-29T10:03:00;100668.50;;;26.37
77728;BMP280;68312;53.502;10.030;2023-07-29T10:05:26;100675.44;;;26.99
77728;BMP280;68312;53.502;10.030;2023-07-29T10:07:54;100672.09;;;26.95
77728;BMP280;68312;53.502;10.030;2023-07-29T10:10:20;100676.63;;;26.86
77728;BMP280;68312;53.502;10.030;2023-07-29T10:12:46;100678.38;;;27.38
77728;BMP280;68312;53.502;10.030;2023-07-29T10:15:12;100677.72;;;27.01
77728;BMP280;68312;53.502;10.030;2023-07-29T10:17:39;100677.28;;;26.53
77728;BMP280;68312;53.502;10.030;2023-07-29T10:20:07;100664.38;;;25.65
77728;BMP280;68312;53.502;10.030;2023-07-29T10:22:41;100681.78;;;25.76
77728;BMP280;68312;53.502;10.030;2023-07-29T10:25:18;100679.78;;;25.64
77728;BMP280;68312;53.502;10.030;2023-07-29T10:27:49;100675.59;;;25.32
77728;BMP280;68312;53.502;10.030;2023-07-29T10:30:18;100676.28;;;24.51
77728;BMP280;68312;53.502;10.030;2023-07-29T10:32:45;100680.41;;;24.36
77728;BMP280;68312;53.502;10.030;2023-07-29T10:35:14;100685.53;;;24.30
77728;BMP280;68312;53.502;10.030;2023-07-29T10:37:41;100678.19;;;23.93
77728;BMP280;68312;53.502;10.030;2023-07-29T10:40:09;100677.84;;;23.68
77728;BMP280;68312;53.502;10.030;2023-07-29T10:42:38;100679.34;;;23.50
77728;BMP280;68312;53.502;10.030;2023-07-29T10:45:24;100673.44;;;23.58
77728;BMP280;68312;53.502;10.030;2023-07-29T10:47:49;100675.03;;;23.98
77728;BMP280;68312;53.502;10.030;2023-07-29T10:54:09;100661.75;;;24.29
77728;BMP280;68312;53.502;10.030;2023-07-29T10:56:40;100660.41;;;24.21
77728;BMP280;68312;53.502;10.030;2023-07-29T11:01:43;100657.34;;;24.00
77728;BMP280;68312;53.502;10.030;2023-07-29T11:12:51;100670.38;;;24.02
77728;BMP280;68312;53.502;10.030;2023-07-29T11:17:57;100654.19;;;24.97
77728;BMP280;68312;53.502;10.030;2023-07-29T11:20:26;100652.41;;;25.81
77728;BMP280;68312;53.502;10.030;2023-07-29T11:22:55;100649.47;;;25.76
77728;BMP280;68312;53.502;10.030;2023-07-29T11:25:24;100643.16;;;25.39
77728;BMP280;68312;53.502;10.030;2023-07-29T11:27:53;100648.50;;;24.92
77728;BMP280;68312;53.502;10.030;2023-07-29T11:30:20;100647.50;;;24.86
77728;BMP280;68312;53.502;10.030;2023-07-29T11:32:46;100643.56;;;24.75
77728;BMP280;68312;53.502;10.030;2023-07-29T11:35:17;100657.66;;;24.25
77728;BMP280;68312;53.502;10.030;2023-07-29T11:37:54;100663.16;;;23.76
77728;BMP280;68312;53.502;10.030;2023-07-29T11:44:02;100654.31;;;24.90
77728;BMP280;68312;53.502;10.030;2023-07-29T11:46:27;100655.19;;;26.18
77728;BMP280;68312;53.502;10.030;2023-07-29T11:48:56;100650.34;;;26.78
77728;BMP280;68312;53.502;10.030;2023-07-29T11:51:21;100646.38;;;27.28
77728;BMP280;68312;53.502;10.030;2023-07-29T11:53:47;100651.25;;;26.35
77728;BMP280;68312;53.502;10.030;2023-07-29T11:56:13;100655.66;;;24.98
77728;BMP280;68312;53.502;10.030;2023-07-29T11:58:39;100662.91;;;24.66
77728;BMP280;68312;53.502;10.030;2023-07-29T12:01:05;100660.66;;;26.02
77728;BMP280;68312;53.502;10.030;2023-07-29T12:09:38;100643.63;;;28.63
77728;BMP280;68312;53.502;10.030;2023-07-29T12:12:05;100637.91;;;29.17
77728;BMP280;68312;53.502;10.030;2023-07-29T12:14:32;100639.28;;;28.27
77728;BMP280;68312;53.502;10.030;2023-07-29T12:17:02;100652.63;;;28.00
77728;BMP280;68312;53.502;10.030;2023-07-29T12:19:33;100641.38;;;27.39
77728;BMP280;68312;53.502;10.030;2023-07-29T12:22:05;100642.72;;;27.76
77728;BMP280;68312;53.502;10.030;2023-07-29T12:24:32;100640.78;;;27.22
77728;BMP280;68312;53.502;10.030;2023-07-29T12:26:59;100643.56;;;27.19
77728;BMP280;68312;53.502;10.030;2023-07-29T12:29:25;100645.34;;;28.10
77728;BMP280;68312;53.502;10.030;2023-07-29T12:32:02;100631.25;;;28.14
77728;BMP280;68312;53.502;10.030;2023-07-29T12:34:30;100640.88;;;27.94
77728;BMP280;68312;53.502;10.030;2023-07-29T12:36:58;100631.63;;;27.08
77728;BMP280;68312;53.502;10.030;2023-07-29T12:39:28;100639.03;;;26.18
77728;BMP280;68312;53.502;10.030;2023-07-29T12:41:56;100635.13;;;25.95
77728;BMP280;68312;53.502;10.030;2023-07-29T12:44:24;100644.34;;;25.66
77728;BMP280;68312;53.502;10.030;2023-07-29T12:46:55;100648.69;;;25.01
77728;BMP280;68312;53.502;10.030;2023-07-29T12:49:20;100662.91;;;25.32
77728;BMP280;68312;53.502;10.030;2023-07-29T12:51:47;100650.88;;;25.80
77728;BMP280;68312;53.502;10.030;2023-07-29T12:54:12;100648.41;;;26.78
77728;BMP280;68312;53.502;10.030;2023-07-29T13:00:18;100641.06;;;27.37
77728;BMP280;68312;53.502;10.030;2023-07-29T13:02:44;100638.09;;;27.56
77728;BMP280;68312;53.502;10.030;2023-07-29T13:05:10;100638.13;;;27.86
77728;BMP280;68312;53.502;10.030;2023-07-29T13:07:38;100633.75;;;27.58
77728;BMP280;68312;53.502;10.030;2023-07-29T13:10:05;100639.06;;;27.16
77728;BMP280;68312;53.502;10.030;2023-07-29T13:12:30;100651.53;;;25.84
77728;BMP280;68312;53.502;10.030;2023-07-29T13:14:56;100643.88;;;25.55
77728;BMP280;68312;53.502;10.030;2023-07-29T13:17:22;100657.53;;;25.32
77728;BMP280;68312;53.502;10.030;2023-07-29T13:19:48;100661.41;;;25.31
77728;BMP280;68312;53.502;10.030;2023-07-29T13:22:14;100658.88;;;25.09
77728;BMP280;68312;53.502;10.030;2023-07-29T13:24:39;100648.59;;;25.51
77728;BMP280;68312;53.502;10.030;2023-07-29T13:27:04;100649.78;;;25.34
77728;BMP280;68312;53.502;10.030;2023-07-29T13:29:30;100654.41;;;25.02
77728;BMP280;68312;53.502;10.030;2023-07-29T13:31:55;100654.00;;;25.04
77728;BMP280;68312;53.502;10.030;2023-07-29T13:34:21;100656.13;;;24.62
77728;BMP280;68312;53.502;10.030;2023-07-29T13:36:47;100648.13;;;24.39
77728;BMP280;68312;53.502;10.030;2023-07-29T13:39:12;100659.63;;;24.02
77728;BMP280;68312;53.502;10.030;2023-07-29T13:41:37;100661.88;;;23.84
77728;BMP280;68312;53.502;10.030;2023-07-29T13:44:03;100669.31;;;23.96
77728;BMP280;68312;53.502;10.030;2023-07-29T13:46:28;100665.97;;;24.68
77728;BMP280;68312;53.502;10.030;2023-07-29T13:48:54;100656.09;;;25.28
77728;BMP280;68312;53.502;10.030;2023-07-29T13:51:19;100648.69;;;25.32
77728;BMP280;68312;53.502;10.030;2023-07-29T13:53:45;100655.94;;;25.03
77728;BMP280;68312;53.502;10.030;2023-07-29T13:56:10;100665.53;;;24.51
77728;BMP280;68312;53.502;10.030;2023-07-29T13:58:35;100662.59;;;24.26
77728;BMP280;68312;53.502;10.030;2023-07-29T14:01:01;100668.13;;;24.19
77728;BMP280;68312;53.502;10.030;2023-07-29T14:03:26;100656.59;;;25.07
77728;BMP280;68312;53.502;10.030;2023-07-29T14:05:51;100665.25;;;25.15
77728;BMP280;68312;53.502;10.030;2023-07-29T14:08:17;100650.78;;;26.24
77728;BMP280;68312;53.502;10.030;2023-07-29T14:10:42;100650.97;;;26.69
77728;BMP280;68312;53.502;10.030;2023-07-29T14:13:07;100659.03;;;25.33
77728;BMP280;68312;53.502;10.030;2023-07-29T14:15:33;100659.41;;;24.85
77728;BMP280;68312;53.502;10.030;2023-07-29T14:17:58;100678.56;;;24.52
77728;BMP280;68312;53.502;10.030;2023-07-29T14:20:24;100667.50;;;24.31
77728;BMP280;68312;53.502;10.030;2023-07-29T14:22:49;100670.84;;;23.97
77728;BMP280;68312;53.502;10.030;2023-07-29T14:25:15;100671.91;;;24.76
77728;BMP280;68312;53.502;10.030;2023-07-29T14:27:40;100656.22;;;26.36
77728;BMP280;68312;53.502;10.030;2023-07-29T14:30:06;100644.03;;;27.17